Urb La Campina, Puerto Rico
Current Conditions -  °F | °C
As of 6:56 PM on Monday 20 Oct 2014 (Local Time) from TJSJ Reporting Station
Scattered Clouds Scattered Clouds  
Wind Chill: 82°   Ceiling: Unl
Heat Index: 89°   Visibility: 10mi
Dew Point: 76°   Wind: 7mph
Humidity: 82%   Direction: 80°E
Pressure: 29.93"   Gusts: NA
Location:  18.3754°N, 66.0577°W
Report Text: TJSJ 202256Z 08006KT 10SM FEW046 SCT085 28/24 A2993 RMK AO2 SLP133 T02780244
Loading
Personal Weather Stations






























Interactive Weather Map
Tropical Storm Tracking
New forecast layout! Learn more

10-Day Weather Forecast

Advertisements
Track Severe Weather on mobile